الصفحة الرئيسية
METAR-TAF:

METAR-TAF

مطار :

Piura, بيرو

دائرة عرض: 05-11S, خط طول: 080-36W, ارتفاع: 49 متر

مراقبة الطقس الحالي

تاريخ ووقت الإصدار 41 دقيقة قبل الساعة 00:00UTC
ريح 13 عقدة من الجنوب
درجة الحرارة 26°درجة مئوية
الرطوبة 61%
ضغط 1009 hPa
الرؤية 10 كم أو أكثر
الغيوم لا تقل 1500 م ولا وجود لمزنة ركامية السحاب الأسود

METAR: SPUR 040000Z 19013KT CAVOK 26/18 Q1009 RMK BIRD HAZARD RWY 19/01 PP000

زمن: 19:41 (00:41 UTC)

توقعات

تاريخ ووقت الإصدار 1ساعة و 41 دقيقة قبل الساعة 23:00UTC
التوقعات صالحة من04 الساعة 00 UTC إلى 04 الساعة 24 UTC
ريح 7 عقدة من الجنوب/الجنوب الشرقي
الرؤية 10 كم أو أكثر
الغيوم لا تقل 1500 م ولا وجود لمزنة ركامية السحاب الأسود
أصبح
من 04 الساعة 02 UTC إلى 04 الساعة 04 UTC
غيوم مفككة على ارتفاع 1500 قدم
مؤقت
من 04 الساعة 11 UTC إلى 04 الساعة 14 UTC
ملبد بالغيوم على ارتفاع 1200 قدم
من 04 الساعة 1730 UTC
ريح 13 عقدة من الجنوب الغربي
الرؤية 10 كم أو أكثر
الغيوم لا تقل 1500 م ولا وجود لمزنة ركامية السحاب الأسود

TAF: SPUR 032300Z 0400/0424 16007KT CAVOK TX32/0419Z TN20/0411Z BECMG 0402/0404 BKN015 TEMPO 0411/0414 OVC012 FM041730 22013KT CAVOK

أرصاد الطقس والتوقعات من أكثر من 4000 مطار (تقارير الطقس للمطار METAR والتنبؤ بالطقس بالمطارTAF).

المحطات المتاحة هي النقط الصفراء والحمراء على الخريطة.

حرك المؤشر فوق النقطة لمعرفة اسم المحطة.

ثم انقر لمعرفة أرصاد وتوقعات الطقس.

لتغيير الخارطة: اضغط على الأزرار الخضراء مع رمز الصليب الأسود للتكبير. على الزر الأخضر مع شرطة للتصغير، أو على الأسهم الخضراء للخرائط المجاورة.


METAR-TAF: